createdAt,value
2023-05-11T11:52:38.650Z,46.50
2023-05-11T11:55:39.507Z,45.33
2023-05-11T11:58:40.628Z,46.33
2023-05-11T12:01:41.487Z,47.36
2023-05-11T12:04:42.636Z,46.42
2023-05-11T12:07:43.501Z,45.84
2023-05-11T12:10:44.604Z,45.64
2023-05-11T12:13:45.463Z,46.26
2023-05-11T12:16:46.622Z,46.45
2023-05-11T12:19:47.473Z,45.34
2023-05-11T12:22:48.582Z,45.26
2023-05-11T12:25:49.431Z,43.67
2023-05-11T12:28:50.524Z,44.32
2023-05-11T12:31:51.404Z,43.63
2023-05-11T12:34:52.516Z,43.45
2023-05-11T12:37:53.704Z,42.83
2023-05-11T12:40:54.364Z,43.07
2023-05-11T12:43:55.212Z,42.33
2023-05-11T12:46:56.339Z,42.21
2023-05-11T12:49:57.192Z,42.52
2023-05-11T12:52:58.358Z,43.06
2023-05-11T12:55:59.213Z,43.09
2023-05-11T12:59:00.327Z,42.84
2023-05-11T13:02:01.185Z,42.60
2023-05-11T13:05:02.286Z,42.50
2023-05-11T13:08:03.192Z,42.72
2023-05-11T13:11:04.283Z,42.81
2023-05-11T13:14:05.220Z,41.98
2023-05-11T13:17:06.312Z,42.25
2023-05-11T13:20:07.185Z,43.42
2023-05-11T13:23:08.350Z,43.23
2023-05-11T13:26:09.194Z,42.80
2023-05-11T13:29:11.449Z,42.78
2023-05-11T13:32:11.008Z,42.38
2023-05-11T13:35:12.132Z,41.77
2023-05-11T13:38:13.039Z,41.64
2023-05-11T13:41:14.155Z,41.39
2023-05-11T13:44:15.013Z,41.73
2023-05-11T13:47:16.353Z,41.62
2023-05-11T13:50:16.865Z,41.25
2023-05-11T13:53:18.039Z,42.32
2023-05-11T13:56:18.919Z,42.16
2023-05-11T13:59:20.038Z,42.34
2023-05-11T14:02:20.987Z,42.95
2023-05-11T14:05:22.318Z,42.35
2023-05-11T14:08:22.886Z,41.26
2023-05-11T14:11:23.993Z,41.87
2023-05-11T14:14:24.877Z,42.57
2023-05-11T14:17:26.089Z,43.11
2023-05-11T14:20:26.545Z,43.42
2023-05-11T14:23:27.682Z,44.00
2023-05-11T14:26:28.540Z,44.94
2023-05-11T14:29:29.750Z,45.92
2023-05-11T14:32:30.638Z,46.42
2023-05-11T14:35:31.771Z,48.46
2023-05-11T14:38:32.699Z,49.81
2023-05-11T14:41:33.843Z,50.00
2023-05-11T14:44:34.764Z,51.67
2023-05-11T14:47:35.956Z,53.36
2023-05-11T14:50:36.820Z,53.60
2023-05-11T14:53:38.012Z,55.20
2023-05-11T14:56:38.872Z,55.12
2023-05-11T14:59:51.251Z,56.35
2023-05-11T15:02:41.573Z,57.22
2023-05-11T15:05:41.707Z,57.80
2023-05-11T15:08:42.640Z,59.11
2023-05-11T15:11:43.782Z,59.96
2023-05-11T15:14:44.621Z,61.85
2023-05-11T15:17:45.793Z,62.51
2023-05-11T15:20:46.707Z,62.78
2023-05-11T15:23:47.426Z,63.62
2023-05-11T15:26:48.309Z,63.99
2023-05-11T15:29:49.408Z,63.98
2023-05-11T15:32:50.338Z,64.33
2023-05-11T15:35:51.476Z,64.53
2023-05-11T15:38:52.354Z,64.75
2023-05-11T15:41:53.538Z,64.58
2023-05-11T15:44:54.420Z,65.02
2023-05-11T15:47:55.580Z,65.60
2023-05-11T15:54:52.684Z,66.38
2023-05-11T16:05:23.730Z,68.80
2023-05-11T16:08:24.840Z,69.04
2023-05-11T16:11:25.752Z,69.79
2023-05-11T16:14:26.880Z,70.59
2023-05-11T16:17:27.836Z,68.82
2023-05-11T16:20:28.954Z,69.14
2023-05-11T16:23:29.821Z,69.94
2023-05-11T16:26:31.008Z,68.24
2023-05-11T16:29:31.849Z,69.37
2023-05-11T16:32:33.043Z,68.71
2023-05-11T16:35:33.853Z,66.76
2023-05-11T16:38:35.033Z,66.23
2023-05-11T16:41:35.900Z,67.50
2023-05-11T16:44:36.993Z,67.64
2023-05-11T16:47:37.877Z,67.16
2023-05-11T16:50:39.036Z,67.99
2023-05-11T16:53:39.898Z,67.90
2023-05-11T16:56:41.091Z,68.13
2023-05-11T16:59:41.934Z,67.79
2023-05-11T17:02:43.179Z,69.51
2023-05-11T17:05:43.586Z,69.28
2023-05-11T17:08:44.720Z,69.98
2023-05-11T17:11:45.676Z,68.46
2023-05-11T17:14:46.791Z,67.72
2023-05-11T17:17:47.723Z,68.33
2023-05-11T17:20:48.877Z,68.85
2023-05-11T17:23:49.746Z,69.49
2023-05-11T17:26:50.943Z,69.53
2023-05-11T17:29:51.824Z,68.98
2023-05-11T17:32:53.132Z,69.33
2023-05-11T17:35:53.643Z,70.73
2023-05-11T17:38:54.810Z,70.35
2023-05-11T17:41:55.696Z,70.46
2023-05-11T17:44:56.798Z,71.13
2023-05-11T17:47:57.660Z,70.65
2023-05-11T17:50:58.813Z,71.15
2023-05-11T17:53:59.668Z,71.75
2023-05-11T17:57:00.833Z,71.65
2023-05-11T18:00:01.664Z,72.26
2023-05-11T18:03:02.869Z,72.85
2023-05-11T18:06:03.262Z,73.02
2023-05-11T18:09:04.396Z,73.61
2023-05-11T18:12:05.290Z,73.45
2023-05-11T18:15:06.394Z,73.84
2023-05-11T18:18:07.331Z,73.14
2023-05-11T18:21:08.455Z,73.01
2023-05-11T18:24:09.329Z,73.90
2023-05-11T18:27:10.485Z,74.47
2023-05-11T18:30:19.042Z,74.31
2023-05-11T18:33:19.545Z,74.58
2023-05-11T18:36:20.614Z,75.36
2023-05-11T18:39:21.768Z,75.61
2023-05-11T18:42:15.510Z,75.75
2023-05-11T18:45:17.367Z,75.71
2023-05-11T18:48:16.982Z,75.34
2023-05-11T18:51:17.646Z,75.12
2023-05-11T18:54:18.504Z,75.47
2023-05-11T18:57:19.285Z,74.64
2023-05-11T19:00:20.449Z,75.23
2023-05-11T19:03:21.526Z,75.98
2023-05-11T19:06:21.947Z,75.93
2023-05-11T19:09:23.076Z,75.97
2023-05-11T19:12:23.952Z,76.04
2023-05-11T19:15:25.117Z,76.15
2023-05-11T19:18:25.991Z,76.26
2023-05-11T19:21:27.088Z,76.36
2023-05-11T19:24:27.974Z,76.52
2023-05-11T19:27:29.135Z,77.04
2023-05-11T19:30:30.029Z,77.09
2023-05-11T19:33:31.140Z,76.77
2023-05-11T19:36:32.006Z,77.29
2023-05-11T19:39:33.177Z,77.35
2023-05-11T19:42:39.239Z,77.32
2023-05-11T19:45:35.552Z,77.68
2023-05-11T19:48:35.664Z,76.41
2023-05-11T19:51:36.589Z,76.07
2023-05-11T19:54:37.708Z,75.94
2023-05-11T19:57:38.629Z,76.46
2023-05-11T20:00:39.701Z,76.91
2023-05-11T20:03:40.765Z,76.67
2023-05-11T20:06:41.486Z,76.75
2023-05-11T20:09:42.353Z,77.12
2023-05-11T20:12:43.518Z,77.05
2023-05-11T20:15:44.518Z,77.62
2023-05-11T20:18:45.234Z,77.63
2023-05-11T20:21:46.119Z,77.23
2023-05-11T20:24:47.245Z,77.81
2023-05-11T20:27:48.130Z,77.91
2023-05-11T20:30:49.273Z,77.67
2023-05-11T20:36:50.960Z,77.03
2023-05-11T20:39:51.797Z,77.22
2023-05-11T20:42:52.446Z,76.96
2023-05-11T20:45:53.319Z,77.37
2023-05-11T20:48:54.434Z,76.50
2023-05-11T20:51:55.305Z,76.88
2023-05-11T20:54:56.423Z,77.30
2023-05-11T20:57:57.323Z,77.34
2023-05-11T21:00:58.501Z,78.01
2023-05-11T21:03:58.909Z,77.72
2023-05-11T21:07:00.051Z,77.96
2023-05-11T21:10:08.390Z,78.09
2023-05-11T21:13:09.504Z,77.44
2023-05-11T21:16:10.589Z,77.29
2023-05-11T21:19:11.651Z,77.84
2023-05-11T21:22:05.250Z,78.12
